Time;durP1;ratioP1;P1;durP2;ratioP2;P2;SDS_P1;SDS_P2;PMS_P1;PMS_P2;Temp;Humidity;BMP_temperature;BMP_pressure;BME280_temperature;BME280_humidity;BME280_pressure;Samples;Min_cycle;Max_cycle;Signal;HPM_P1;HPM_P2
2023/06/19 00:01:58;;;;;;;;;;;23.80;46.60;;;;;;5004797;28;20012;-58
2023/06/19 00:04:26;;;;;;;;;;;23.80;46.60;;;;;;5005475;28;20248;-58
2023/06/19 00:06:53;;;;;;;;;;;23.80;46.60;;;;;;5010358;28;19959;-59
2023/06/19 00:09:19;;;;;;;;;;;23.80;46.90;;;;;;5009509;28;19925;-58
2023/06/19 00:11:46;;;;;;;;;;;23.80;46.60;;;;;;5027266;28;19921;-58
2023/06/19 00:14:13;;;;;;;;;;;23.80;46.60;;;;;;5010259;28;19929;-58
2023/06/19 00:16:40;;;;;;;;;;;23.80;46.60;;;;;;5010090;28;19922;-58
2023/06/19 00:19:10;;;;;;;;;;;23.80;46.60;;;;;;4993456;28;19929;-57
2023/06/19 00:21:37;;;;;;;;;;;23.80;46.60;;;;;;5010123;28;19984;-58
2023/06/19 00:24:04;;;;;;;;;;;23.80;46.60;;;;;;5010236;28;19929;-58
2023/06/19 00:26:31;;;;;;;;;;;23.80;46.60;;;;;;5006447;28;19991;-60
2023/06/19 00:28:58;;;;;;;;;;;23.80;46.70;;;;;;5006894;28;19925;-60
2023/06/19 00:31:27;;;;;;;;;;;23.80;46.70;;;;;;5005745;28;19971;-57
2023/06/19 00:33:53;;;;;;;;;;;23.80;46.70;;;;;;5018692;28;20037;-58
2023/06/19 00:36:23;;;;;;;;;;;23.80;46.70;;;;;;5023939;28;19957;-58
2023/06/19 00:38:50;;;;;;;;;;;23.80;46.70;;;;;;5005795;28;19922;-58
2023/06/19 00:41:17;;;;;;;;;;;23.80;46.70;;;;;;5002329;28;19972;-58
2023/06/19 00:43:43;;;;;;;;;;;23.80;46.70;;;;;;5004230;28;19943;-58
2023/06/19 00:46:10;;;;;;;;;;;23.80;46.70;;;;;;5008307;28;20012;-58
2023/06/19 00:48:37;;;;;;;;;;;23.80;46.70;;;;;;5005791;28;20364;-58
2023/06/19 00:51:04;;;;;;;;;;;23.80;46.70;;;;;;5003224;28;19972;-58
2023/06/19 00:53:32;;;;;;;;;;;23.80;46.70;;;;;;5004474;28;19921;-58
2023/06/19 00:55:59;;;;;;;;;;;23.80;46.70;;;;;;5009712;28;19925;-58
2023/06/19 00:58:25;;;;;;;;;;;23.80;46.70;;;;;;5004247;28;20016;-58
2023/06/19 01:00:52;;;;;;;;;;;23.80;46.70;;;;;;5002797;28;19921;-58
2023/06/19 01:03:19;;;;;;;;;;;23.80;46.80;;;;;;5004361;28;19922;-58
2023/06/19 01:05:46;;;;;;;;;;;23.80;46.80;;;;;;5005166;28;19976;-58
2023/06/19 01:08:14;;;;;;;;;;;23.80;46.80;;;;;;5009099;28;19926;-58
2023/06/19 01:10:43;;;;;;;;;;;23.80;46.80;;;;;;5005684;28;19971;-58
2023/06/19 01:13:11;;;;;;;;;;;23.80;46.80;;;;;;5001514;28;19953;-58
2023/06/19 01:15:38;;;;;;;;;;;23.80;46.80;;;;;;4997166;28;19926;-58
2023/06/19 01:18:05;;;;;;;;;;;23.70;46.80;;;;;;5006412;28;19988;-58
2023/06/19 01:20:33;;;;;;;;;;;23.80;46.80;;;;;;5014991;28;19928;-58
2023/06/19 01:23:07;;;;;;;;;;;23.80;46.80;;;;;;5010656;28;19921;-58
2023/06/19 01:25:33;;;;;;;;;;;23.80;46.90;;;;;;5005424;28;19922;-58
2023/06/19 01:28:00;;;;;;;;;;;23.70;46.80;;;;;;5005100;28;19975;-58
2023/06/19 01:30:27;;;;;;;;;;;23.80;46.90;;;;;;5006169;28;19933;-58
2023/06/19 01:32:54;;;;;;;;;;;23.70;46.80;;;;;;5002326;28;19930;-58
2023/06/19 01:35:22;;;;;;;;;;;23.70;46.80;;;;;;5010947;28;19972;-58
2023/06/19 01:37:51;;;;;;;;;;;23.80;46.90;;;;;;5008578;28;19932;-58
2023/06/19 01:40:21;;;;;;;;;;;23.70;46.90;;;;;;5006196;28;19925;-58
2023/06/19 01:42:48;;;;;;;;;;;23.70;46.90;;;;;;5002944;28;19922;-58
2023/06/19 01:45:14;;;;;;;;;;;23.70;46.90;;;;;;5018760;28;19922;-58
2023/06/19 01:47:41;;;;;;;;;;;23.70;46.90;;;;;;5004132;28;19925;-57
2023/06/19 01:50:08;;;;;;;;;;;23.70;46.90;;;;;;5011801;28;19921;-58
2023/06/19 01:52:35;;;;;;;;;;;23.70;46.90;;;;;;5007236;28;20249;-57
2023/06/19 01:55:02;;;;;;;;;;;23.70;47.00;;;;;;5006231;28;19922;-58
2023/06/19 01:57:30;;;;;;;;;;;23.70;47.00;;;;;;5007053;28;20021;-58
2023/06/19 01:59:57;;;;;;;;;;;23.70;47.00;;;;;;5004006;28;19939;-58
2023/06/19 02:02:24;;;;;;;;;;;23.70;47.00;;;;;;5009321;28;20311;-58
2023/06/19 02:04:51;;;;;;;;;;;23.70;47.00;;;;;;4999257;28;20280;-58
2023/06/19 02:07:18;;;;;;;;;;;23.70;47.00;;;;;;5008925;28;19922;-58
2023/06/19 02:09:45;;;;;;;;;;;23.70;47.10;;;;;;5008939;28;19926;-58
2023/06/19 02:12:11;;;;;;;;;;;23.70;47.10;;;;;;5004997;28;19922;-58
2023/06/19 02:14:40;;;;;;;;;;;23.70;47.10;;;;;;5012642;28;20008;-58
2023/06/19 02:17:07;;;;;;;;;;;23.70;47.10;;;;;;5003978;28;20299;-58
2023/06/19 02:19:33;;;;;;;;;;;23.70;47.20;;;;;;5005480;28;20315;-58
2023/06/19 02:22:00;;;;;;;;;;;23.70;47.20;;;;;;5005428;28;19926;-58
2023/06/19 02:24:27;;;;;;;;;;;23.70;47.20;;;;;;4999710;28;19988;-58
2023/06/19 02:26:53;;;;;;;;;;;23.70;47.20;;;;;;5010543;28;19936;-58
2023/06/19 02:29:20;;;;;;;;;;;23.70;47.20;;;;;;5010975;28;19926;-57
2023/06/19 02:31:49;;;;;;;;;;;23.70;47.20;;;;;;5013350;28;19922;-58
2023/06/19 02:34:16;;;;;;;;;;;23.60;47.20;;;;;;5013273;28;19984;-57
2023/06/19 02:36:43;;;;;;;;;;;23.70;47.30;;;;;;5009724;28;19922;-58
2023/06/19 02:39:09;;;;;;;;;;;23.60;47.20;;;;;;5004791;28;19972;-59
2023/06/19 02:41:38;;;;;;;;;;;23.60;47.20;;;;;;4996969;28;19926;-59
2023/06/19 02:44:04;;;;;;;;;;;23.70;47.30;;;;;;4995847;28;19961;-58
2023/06/19 02:46:31;;;;;;;;;;;23.70;47.30;;;;;;4996149;28;20364;-58
2023/06/19 02:49:00;;;;;;;;;;;23.70;47.30;;;;;;5004904;28;19921;-58
2023/06/19 02:51:27;;;;;;;;;;;23.60;47.20;;;;;;5003132;28;19957;-58
2023/06/19 02:53:54;;;;;;;;;;;23.70;47.30;;;;;;5001262;28;19928;-58
2023/06/19 02:56:20;;;;;;;;;;;23.70;47.30;;;;;;5001831;28;19972;-58
2023/06/19 02:58:48;;;;;;;;;;;23.70;47.40;;;;;;5012730;28;20352;-58
2023/06/19 03:01:14;;;;;;;;;;;23.60;47.30;;;;;;5011894;28;19921;-58
2023/06/19 03:03:41;;;;;;;;;;;23.70;47.40;;;;;;5013456;28;19972;-58
2023/06/19 03:06:09;;;;;;;;;;;23.60;47.30;;;;;;5012121;28;20339;-58
2023/06/19 03:08:36;;;;;;;;;;;23.60;47.30;;;;;;5016952;28;19921;-58
2023/06/19 03:11:04;;;;;;;;;;;23.70;47.40;;;;;;4997243;28;19976;-58
2023/06/19 03:13:30;;;;;;;;;;;23.60;47.30;;;;;;5009392;28;19933;-58
2023/06/19 03:15:57;;;;;;;;;;;23.60;47.30;;;;;;5010304;28;19922;-58
2023/06/19 03:18:24;;;;;;;;;;;23.70;47.40;;;;;;5015173;28;20327;-58
2023/06/19 03:20:50;;;;;;;;;;;23.60;47.40;;;;;;5015136;28;20242;-59
2023/06/19 03:23:19;;;;;;;;;;;23.60;47.40;;;;;;5011202;28;19929;-58
2023/06/19 03:25:45;;;;;;;;;;;23.60;47.40;;;;;;5009544;28;20351;-58
2023/06/19 03:28:12;;;;;;;;;;;23.60;47.40;;;;;;5005312;28;20176;-58
2023/06/19 03:30:39;;;;;;;;;;;23.60;47.40;;;;;;5002368;28;19925;-58
2023/06/19 03:33:06;;;;;;;;;;;23.60;47.40;;;;;;5006598;28;19929;-58
2023/06/19 03:35:32;;;;;;;;;;;23.60;47.40;;;;;;5010758;28;19928;-58
2023/06/19 03:37:59;;;;;;;;;;;23.60;47.50;;;;;;5010408;28;19922;-59
2023/06/19 03:40:27;;;;;;;;;;;23.60;47.50;;;;;;5010580;28;20422;-58
2023/06/19 03:42:54;;;;;;;;;;;23.60;47.50;;;;;;5009285;28;19961;-58
2023/06/19 03:45:21;;;;;;;;;;;23.60;47.60;;;;;;5011695;28;19925;-58
2023/06/19 03:47:48;;;;;;;;;;;23.60;47.60;;;;;;5008578;28;20272;-58
2023/06/19 03:50:14;;;;;;;;;;;23.60;48.20;;;;;;5010476;28;19987;-58
2023/06/19 03:52:41;;;;;;;;;;;23.60;47.70;;;;;;5009905;28;19981;-59
2023/06/19 03:55:08;;;;;;;;;;;23.60;47.70;;;;;;5010581;28;19996;-58
2023/06/19 03:57:36;;;;;;;;;;;23.60;47.70;;;;;;5008121;28;19972;-58
2023/06/19 04:00:07;;;;;;;;;;;23.60;47.70;;;;;;5011330;28;19921;-58
2023/06/19 04:02:34;;;;;;;;;;;23.60;47.70;;;;;;5009789;28;19975;-58
2023/06/19 04:05:00;;;;;;;;;;;23.60;47.70;;;;;;5004493;28;19928;-58
2023/06/19 04:07:28;;;;;;;;;;;23.60;47.70;;;;;;5005487;28;19925;-59
2023/06/19 04:09:54;;;;;;;;;;;23.60;47.70;;;;;;5002415;28;19922;-59
2023/06/19 04:12:21;;;;;;;;;;;23.60;47.70;;;;;;5010466;28;19957;-59
2023/06/19 04:14:49;;;;;;;;;;;23.60;47.80;;;;;;5004852;28;19921;-58
2023/06/19 04:17:16;;;;;;;;;;;23.60;47.80;;;;;;4999888;28;19929;-59
2023/06/19 04:19:43;;;;;;;;;;;23.60;47.90;;;;;;5000548;28;19971;-59
2023/06/19 04:22:10;;;;;;;;;;;23.60;47.90;;;;;;5010104;28;19921;-59
2023/06/19 04:24:37;;;;;;;;;;;23.60;48.50;;;;;;5011634;28;19925;-59
2023/06/19 04:27:04;;;;;;;;;;;23.60;47.90;;;;;;5010595;28;19921;-58
2023/06/19 04:29:31;;;;;;;;;;;23.60;47.90;;;;;;5014690;28;20025;-59
2023/06/19 04:32:00;;;;;;;;;;;23.60;47.90;;;;;;5011944;28;20363;-59
2023/06/19 04:34:27;;;;;;;;;;;23.60;47.90;;;;;;5013586;28;20315;-59
2023/06/19 04:36:58;;;;;;;;;;;23.60;47.90;;;;;;5001314;28;19925;-59
2023/06/19 04:39:25;;;;;;;;;;;23.60;47.90;;;;;;5002881;28;20310;-59
2023/06/19 04:41:51;;;;;;;;;;;23.60;47.90;;;;;;5010095;28;19931;-59
2023/06/19 04:44:18;;;;;;;;;;;23.60;47.90;;;;;;5014844;28;19921;-58
2023/06/19 04:46:45;;;;;;;;;;;23.60;47.90;;;;;;5012469;28;19921;-58
2023/06/19 04:49:13;;;;;;;;;;;23.60;47.90;;;;;;5007121;28;19979;-58
2023/06/19 04:51:40;;;;;;;;;;;23.60;47.90;;;;;;5012035;28;19971;-59
2023/06/19 04:54:07;;;;;;;;;;;23.60;47.90;;;;;;5010601;28;19975;-58
2023/06/19 04:56:34;;;;;;;;;;;23.60;48.00;;;;;;5007962;28;19956;-58
2023/06/19 04:59:02;;;;;;;;;;;23.60;47.90;;;;;;4986944;28;19925;-58
2023/06/19 05:01:30;;;;;;;;;;;23.60;48.00;;;;;;4999826;28;19967;-58
2023/06/19 05:03:59;;;;;;;;;;;23.50;48.00;;;;;;4998285;28;20024;-58
2023/06/19 05:06:27;;;;;;;;;;;23.60;48.10;;;;;;5030698;28;19944;-58
2023/06/19 05:08:53;;;;;;;;;;;23.50;48.00;;;;;;5009160;28;19925;-58
2023/06/19 05:11:20;;;;;;;;;;;23.60;48.10;;;;;;5008023;28;19921;-59
2023/06/19 05:13:47;;;;;;;;;;;23.60;48.10;;;;;;5014044;28;19921;-58
2023/06/19 05:16:16;;;;;;;;;;;23.60;48.10;;;;;;5003768;28;19933;-58
2023/06/19 05:18:43;;;;;;;;;;;23.50;48.00;;;;;;4994551;28;19926;-59
2023/06/19 05:21:09;;;;;;;;;;;23.60;48.10;;;;;;5010435;28;19921;-58
2023/06/19 05:23:38;;;;;;;;;;;23.60;48.00;;;;;;5007362;28;19957;-58
2023/06/19 05:26:05;;;;;;;;;;;23.60;48.00;;;;;;4999930;28;19960;-58
2023/06/19 05:28:32;;;;;;;;;;;23.50;48.00;;;;;;4993191;28;19929;-58
2023/06/19 05:30:58;;;;;;;;;;;23.50;48.00;;;;;;5009728;28;20324;-58
2023/06/19 05:33:26;;;;;;;;;;;23.50;48.00;;;;;;5008656;28;19922;-59
2023/06/19 05:35:54;;;;;;;;;;;23.60;48.00;;;;;;5013473;28;19936;-58
2023/06/19 05:38:20;;;;;;;;;;;23.50;48.00;;;;;;5012235;28;19922;-59
2023/06/19 05:40:49;;;;;;;;;;;23.50;48.00;;;;;;5008962;28;19922;-58
2023/06/19 05:43:16;;;;;;;;;;;23.50;48.00;;;;;;5028816;28;19921;-59
2023/06/19 05:45:42;;;;;;;;;;;23.50;47.90;;;;;;5012771;28;20315;-59
2023/06/19 05:48:09;;;;;;;;;;;23.60;48.00;;;;;;5026986;28;19921;-59
2023/06/19 05:50:36;;;;;;;;;;;23.60;48.00;;;;;;5012639;28;19940;-59
2023/06/19 05:53:03;;;;;;;;;;;23.60;48.10;;;;;;5012936;28;19925;-59
2023/06/19 05:55:30;;;;;;;;;;;23.50;48.00;;;;;;5012484;28;19929;-59
2023/06/19 05:57:58;;;;;;;;;;;23.60;48.10;;;;;;5017958;28;19976;-59
2023/06/19 06:00:25;;;;;;;;;;;23.60;48.10;;;;;;5013526;28;19933;-58
2023/06/19 06:02:51;;;;;;;;;;;23.50;48.10;;;;;;5016162;28;20258;-58
2023/06/19 06:05:18;;;;;;;;;;;23.50;48.10;;;;;;5020494;28;20315;-59
2023/06/19 06:07:45;;;;;;;;;;;23.60;48.20;;;;;;5020310;28;19921;-59
2023/06/19 06:10:12;;;;;;;;;;;23.50;48.10;;;;;;5016050;28;19925;-59
2023/06/19 06:12:39;;;;;;;;;;;23.50;48.10;;;;;;5013424;28;20308;-59
2023/06/19 06:15:08;;;;;;;;;;;23.60;48.20;;;;;;5012174;28;19928;-58
2023/06/19 06:17:35;;;;;;;;;;;23.60;48.20;;;;;;5010742;28;19925;-59
2023/06/19 06:20:03;;;;;;;;;;;23.60;48.30;;;;;;5016644;28;20291;-59
2023/06/19 06:22:29;;;;;;;;;;;23.50;48.30;;;;;;5014735;28;19921;-59
2023/06/19 06:24:56;;;;;;;;;;;23.60;48.30;;;;;;5010748;28;19933;-59
2023/06/19 06:27:23;;;;;;;;;;;23.60;48.40;;;;;;5009087;28;20079;-59
2023/06/19 06:29:49;;;;;;;;;;;23.60;48.40;;;;;;5014557;28;19937;-59
2023/06/19 06:32:18;;;;;;;;;;;23.60;48.40;;;;;;5014355;28;19928;-59
2023/06/19 06:34:44;;;;;;;;;;;23.60;48.40;;;;;;5016870;28;20012;-59
2023/06/19 06:37:11;;;;;;;;;;;23.60;48.50;;;;;;5012360;28;19925;-60
2023/06/19 06:39:38;;;;;;;;;;;23.60;48.50;;;;;;5013681;28;20340;-60
2023/06/19 06:42:05;;;;;;;;;;;23.60;48.60;;;;;;4990320;28;20023;-59
2023/06/19 06:44:32;;;;;;;;;;;23.60;48.60;;;;;;5011301;28;20322;-58
2023/06/19 06:46:58;;;;;;;;;;;23.60;48.60;;;;;;5009580;28;20038;-59
2023/06/19 06:49:26;;;;;;;;;;;23.60;48.70;;;;;;5013386;28;19928;-58
2023/06/19 06:51:53;;;;;;;;;;;23.60;48.70;;;;;;5002615;28;19938;-60
2023/06/19 06:54:20;;;;;;;;;;;23.60;48.80;;;;;;5016500;28;19929;-58
2023/06/19 06:56:47;;;;;;;;;;;23.60;48.80;;;;;;4993077;28;19925;-59
2023/06/19 06:59:15;;;;;;;;;;;23.60;48.80;;;;;;4993693;28;19926;-60
2023/06/19 07:01:42;;;;;;;;;;;23.60;48.90;;;;;;4999819;28;19922;-59
2023/06/19 07:04:09;;;;;;;;;;;23.60;48.90;;;;;;4998015;28;19969;-59
2023/06/19 07:06:37;;;;;;;;;;;23.60;49.00;;;;;;4997622;28;19933;-59
2023/06/19 07:09:04;;;;;;;;;;;23.60;48.90;;;;;;5006371;28;19933;-59
2023/06/19 07:11:31;;;;;;;;;;;23.60;48.90;;;;;;5009299;28;19921;-59
2023/06/19 07:13:58;;;;;;;;;;;23.60;48.80;;;;;;5009847;28;19984;-59
2023/06/19 07:16:24;;;;;;;;;;;23.60;48.80;;;;;;5003021;28;19933;-59
2023/06/19 07:18:51;;;;;;;;;;;23.60;48.90;;;;;;5006576;28;19952;-59
2023/06/19 07:21:18;;;;;;;;;;;23.60;48.90;;;;;;5009053;28;19933;-60
2023/06/19 07:23:47;;;;;;;;;;;23.60;49.00;;;;;;5004958;28;20037;-60
2023/06/19 07:26:14;;;;;;;;;;;23.60;49.00;;;;;;5010120;28;20345;-60
2023/06/19 07:28:41;;;;;;;;;;;23.60;48.90;;;;;;5004771;28;19925;-59
2023/06/19 07:31:08;;;;;;;;;;;23.60;48.90;;;;;;5008153;28;19948;-59
2023/06/19 07:33:34;;;;;;;;;;;23.60;49.00;;;;;;5006185;28;19967;-57
2023/06/19 07:36:02;;;;;;;;;;;23.60;48.90;;;;;;4991953;28;20008;-59
2023/06/19 07:38:29;;;;;;;;;;;23.60;48.90;;;;;;5004397;28;19925;-59
2023/06/19 07:40:57;;;;;;;;;;;23.70;49.00;;;;;;5017915;28;19937;-58
2023/06/19 07:43:24;;;;;;;;;;;23.70;49.00;;;;;;4994922;28;19940;-59
2023/06/19 07:45:51;;;;;;;;;;;23.60;49.00;;;;;;4990550;28;19968;-57
2023/06/19 07:48:17;;;;;;;;;;;23.70;49.00;;;;;;5007882;28;20474;-58
2023/06/19 07:50:44;;;;;;;;;;;23.60;49.00;;;;;;4993482;28;19957;-59
2023/06/19 07:53:11;;;;;;;;;;;23.70;49.00;;;;;;5002705;28;19921;-58
2023/06/19 07:55:38;;;;;;;;;;;23.70;49.00;;;;;;5006269;28;19926;-57
2023/06/19 07:58:06;;;;;;;;;;;23.70;48.90;;;;;;4999871;28;19936;-57
2023/06/19 08:00:33;;;;;;;;;;;23.70;48.90;;;;;;5008123;28;19930;-58
2023/06/19 08:02:59;;;;;;;;;;;23.70;48.90;;;;;;5020368;28;19988;-58
2023/06/19 08:05:26;;;;;;;;;;;23.70;48.80;;;;;;5005388;28;19976;-58
2023/06/19 08:07:53;;;;;;;;;;;23.70;48.90;;;;;;5004058;28;20410;-59
2023/06/19 08:10:20;;;;;;;;;;;23.70;48.90;;;;;;5004882;28;19979;-58
2023/06/19 08:12:46;;;;;;;;;;;23.70;48.90;;;;;;5004182;28;20319;-58
2023/06/19 08:15:14;;;;;;;;;;;23.80;49.00;;;;;;5007109;28;20384;-58
2023/06/19 08:17:41;;;;;;;;;;;23.80;48.90;;;;;;5008561;28;19976;-59
2023/06/19 08:20:09;;;;;;;;;;;23.80;49.00;;;;;;5008670;28;19926;-58
2023/06/19 08:22:36;;;;;;;;;;;23.80;49.00;;;;;;5007251;28;19928;-59
2023/06/19 08:25:03;;;;;;;;;;;23.80;49.00;;;;;;5006687;28;19979;-60
2023/06/19 08:27:29;;;;;;;;;;;23.80;49.00;;;;;;5007263;28;20027;-59
2023/06/19 08:29:56;;;;;;;;;;;23.80;49.60;;;;;;5002861;28;19996;-58
2023/06/19 08:32:24;;;;;;;;;;;23.80;49.00;;;;;;5005829;28;19948;-58
2023/06/19 08:34:51;;;;;;;;;;;23.90;49.10;;;;;;5008602;28;19926;-58
2023/06/19 08:37:19;;;;;;;;;;;23.90;49.10;;;;;;5005036;28;19925;-58
2023/06/19 08:39:45;;;;;;;;;;;23.90;49.20;;;;;;5009498;28;19968;-59
2023/06/19 08:42:12;;;;;;;;;;;23.90;49.20;;;;;;5007004;28;19972;-58
2023/06/19 08:44:39;;;;;;;;;;;23.90;49.20;;;;;;5005171;28;19921;-58
2023/06/19 08:47:06;;;;;;;;;;;23.90;49.20;;;;;;5006101;28;19929;-58
2023/06/19 08:49:34;;;;;;;;;;;23.90;49.30;;;;;;5005481;28;19922;-58
2023/06/19 08:52:01;;;;;;;;;;;24.00;49.30;;;;;;5000845;28;19937;-58
2023/06/19 08:54:28;;;;;;;;;;;24.00;49.40;;;;;;5006904;28;19921;-58
2023/06/19 08:56:55;;;;;;;;;;;24.00;49.40;;;;;;5006778;28;19964;-59
2023/06/19 08:59:22;;;;;;;;;;;24.00;49.40;;;;;;5010208;28;20019;-58
2023/06/19 09:01:51;;;;;;;;;;;24.00;49.40;;;;;;5004208;28;19938;-58
2023/06/19 09:04:19;;;;;;;;;;;24.00;49.60;;;;;;5006545;28;19921;-59
2023/06/19 09:06:50;;;;;;;;;;;24.00;49.50;;;;;;5005176;28;19921;-59
2023/06/19 09:09:17;;;;;;;;;;;24.00;49.60;;;;;;5002968;28;19975;-58
2023/06/19 09:11:44;;;;;;;;;;;24.10;49.60;;;;;;5007853;28;19932;-58
2023/06/19 09:14:11;;;;;;;;;;;24.10;49.60;;;;;;5006990;28;19934;-59
2023/06/19 09:16:39;;;;;;;;;;;24.10;49.60;;;;;;5005562;28;20023;-58
2023/06/19 09:19:06;;;;;;;;;;;24.10;49.60;;;;;;5002020;28;19945;-59
2023/06/19 09:21:33;;;;;;;;;;;24.10;49.70;;;;;;5003454;28;19985;-59
2023/06/19 09:24:04;;;;;;;;;;;24.10;49.70;;;;;;5006718;28;19965;-59
2023/06/19 09:26:31;;;;;;;;;;;24.10;49.70;;;;;;5019182;28;19972;-60
2023/06/19 09:28:58;;;;;;;;;;;24.10;49.70;;;;;;5003531;28;19975;-58
2023/06/19 09:31:32;;;;;;;;;;;24.10;49.70;;;;;;5004321;28;19979;-59
2023/06/19 09:33:59;;;;;;;;;;;24.10;49.70;;;;;;4997435;28;19926;-58
2023/06/19 09:36:26;;;;;;;;;;;24.10;49.80;;;;;;5000050;28;20364;-59
2023/06/19 09:38:55;;;;;;;;;;;24.10;49.90;;;;;;5002616;28;19921;-59
2023/06/19 09:41:23;;;;;;;;;;;24.10;49.90;;;;;;5004769;28;19933;-59
2023/06/19 09:43:50;;;;;;;;;;;24.20;50.00;;;;;;5000858;28;20019;-59
2023/06/19 09:46:17;;;;;;;;;;;24.20;50.10;;;;;;5005509;28;20406;-58
2023/06/19 09:48:45;;;;;;;;;;;24.20;50.10;;;;;;5022144;28;19921;-59
2023/06/19 09:51:13;;;;;;;;;;;24.20;50.20;;;;;;5001099;28;19935;-58
2023/06/19 09:53:40;;;;;;;;;;;24.20;50.30;;;;;;5003896;28;19985;-58
2023/06/19 09:56:07;;;;;;;;;;;24.20;50.20;;;;;;5007931;28;19925;-58
2023/06/19 09:58:36;;;;;;;;;;;24.30;50.30;;;;;;5006017;28;19922;-58
2023/06/19 10:01:04;;;;;;;;;;;24.30;50.30;;;;;;5021239;28;19941;-58
2023/06/19 10:03:31;;;;;;;;;;;24.30;50.40;;;;;;5005883;28;20297;-59
2023/06/19 10:05:58;;;;;;;;;;;24.30;50.40;;;;;;5000283;28;19948;-59
2023/06/19 10:08:30;;;;;;;;;;;24.30;50.40;;;;;;5002847;28;19921;-58
2023/06/19 10:10:57;;;;;;;;;;;24.30;50.40;;;;;;5005181;28;19946;-58
2023/06/19 10:13:31;;;;;;;;;;;24.30;50.40;;;;;;5006798;28;20043;-57
2023/06/19 10:15:59;;;;;;;;;;;24.30;50.40;;;;;;5000105;28;19932;-58
2023/06/19 10:18:26;;;;;;;;;;;24.30;50.40;;;;;;5004110;28;19997;-58
2023/06/19 10:20:54;;;;;;;;;;;24.30;50.40;;;;;;5006784;28;19929;-59
2023/06/19 10:23:22;;;;;;;;;;;24.30;50.40;;;;;;5027313;28;19960;-59
2023/06/19 10:25:49;;;;;;;;;;;24.30;50.30;;;;;;5011185;28;20441;-58
2023/06/19 10:28:19;;;;;;;;;;;24.30;50.30;;;;;;5021077;28;19930;-58
2023/06/19 10:30:46;;;;;;;;;;;24.30;50.30;;;;;;5008367;28;19984;-59
2023/06/19 10:33:14;;;;;;;;;;;24.30;50.20;;;;;;5005636;28;19921;-58
2023/06/19 10:35:41;;;;;;;;;;;24.30;50.10;;;;;;5008493;28;20307;-58
2023/06/19 10:38:08;;;;;;;;;;;24.30;50.10;;;;;;5009492;28;20043;-58
2023/06/19 10:40:36;;;;;;;;;;;24.30;50.00;;;;;;5005145;28;19944;-58
2023/06/19 10:43:03;;;;;;;;;;;24.40;50.00;;;;;;5016042;28;19983;-59
2023/06/19 10:45:30;;;;;;;;;;;24.40;50.10;;;;;;5016804;28;19956;-58
2023/06/19 10:47:57;;;;;;;;;;;24.40;50.10;;;;;;5015359;28;19922;-59
2023/06/19 10:50:25;;;;;;;;;;;24.40;50.10;;;;;;5009879;28;19957;-59
2023/06/19 10:52:54;;;;;;;;;;;24.40;50.10;;;;;;5004536;28;19921;-58
2023/06/19 10:55:21;;;;;;;;;;;24.50;50.30;;;;;;5019231;28;19980;-58
2023/06/19 10:57:48;;;;;;;;;;;24.50;50.30;;;;;;5017224;28;19940;-59
2023/06/19 11:00:23;;;;;;;;;;;24.50;50.20;;;;;;5012380;28;20291;-58
2023/06/19 11:02:50;;;;;;;;;;;24.50;50.30;;;;;;5010473;28;19945;-57
2023/06/19 11:05:17;;;;;;;;;;;24.60;50.40;;;;;;5005764;28;20292;-58
2023/06/19 11:07:45;;;;;;;;;;;24.60;50.40;;;;;;5016745;28;19928;-58
2023/06/19 11:10:19;;;;;;;;;;;24.60;50.40;;;;;;5019691;28;19921;-58
2023/06/19 11:12:46;;;;;;;;;;;24.60;50.50;;;;;;5011909;28;19959;-58
2023/06/19 11:15:13;;;;;;;;;;;24.60;50.40;;;;;;5021077;28;20324;-58
2023/06/19 11:17:40;;;;;;;;;;;24.60;50.50;;;;;;4998089;28;19921;-58
2023/06/19 11:20:10;;;;;;;;;;;24.70;50.50;;;;;;5014469;28;19926;-56
2023/06/19 11:22:38;;;;;;;;;;;24.70;50.50;;;;;;5012849;28;19992;-56
2023/06/19 11:25:07;;;;;;;;;;;24.70;50.40;;;;;;5012178;28;20020;-58
2023/06/19 11:27:35;;;;;;;;;;;24.70;50.30;;;;;;5012347;28;19932;-55
2023/06/19 11:30:04;;;;;;;;;;;24.70;50.30;;;;;;5010979;28;19932;-57
2023/06/19 11:32:31;;;;;;;;;;;24.80;50.30;;;;;;5009429;28;19927;-58
2023/06/19 11:34:58;;;;;;;;;;;24.80;50.30;;;;;;5019001;28;19925;-58
2023/06/19 11:37:24;;;;;;;;;;;24.80;50.20;;;;;;5030807;28;19932;-57
2023/06/19 11:39:52;;;;;;;;;;;24.80;50.20;;;;;;5035273;28;19937;-57
2023/06/19 11:42:20;;;;;;;;;;;24.90;50.20;;;;;;5017629;28;20016;-59
2023/06/19 11:44:53;;;;;;;;;;;24.80;50.10;;;;;;5013689;28;19940;-58
2023/06/19 11:47:20;;;;;;;;;;;24.90;50.10;;;;;;5011441;28;19921;-58
2023/06/19 11:49:48;;;;;;;;;;;24.90;50.10;;;;;;5012004;28;19925;-57
2023/06/19 11:52:15;;;;;;;;;;;24.90;50.10;;;;;;5015746;28;19922;-58
2023/06/19 11:54:42;;;;;;;;;;;24.90;50.60;;;;;;5011678;28;19968;-59
2023/06/19 11:57:11;;;;;;;;;;;24.90;50.00;;;;;;5030865;28;19944;-58
2023/06/19 11:59:40;;;;;;;;;;;24.90;50.10;;;;;;5010899;28;19979;-59
2023/06/19 12:02:07;;;;;;;;;;;24.90;50.20;;;;;;5015758;28;19926;-59
2023/06/19 12:04:34;;;;;;;;;;;24.90;50.20;;;;;;5010311;28;19937;-57
2023/06/19 12:07:00;;;;;;;;;;;24.90;50.30;;;;;;5012398;28;19929;-57
2023/06/19 12:09:28;;;;;;;;;;;24.90;50.20;;;;;;5015584;28;20287;-57
2023/06/19 12:11:55;;;;;;;;;;;25.00;50.20;;;;;;4996650;28;19921;-58
2023/06/19 12:14:21;;;;;;;;;;;25.00;50.30;;;;;;5010180;28;19945;-58
2023/06/19 12:16:50;;;;;;;;;;;25.00;50.40;;;;;;5012667;28;19956;-58
2023/06/19 12:19:16;;;;;;;;;;;25.00;50.40;;;;;;5007126;28;19936;-57
2023/06/19 12:21:43;;;;;;;;;;;25.00;50.40;;;;;;5023016;28;20370;-58
2023/06/19 12:24:10;;;;;;;;;;;25.00;50.40;;;;;;5007294;28;19922;-58
2023/06/19 12:26:37;;;;;;;;;;;25.00;50.40;;;;;;5017343;28;20394;-57
2023/06/19 12:29:04;;;;;;;;;;;25.00;50.40;;;;;;5012922;28;19933;-58
2023/06/19 12:31:32;;;;;;;;;;;25.00;50.50;;;;;;5010256;28;19925;-58
2023/06/19 12:34:01;;;;;;;;;;;25.00;50.50;;;;;;5016928;28;19934;-58
2023/06/19 12:36:27;;;;;;;;;;;25.00;50.60;;;;;;5028963;28;20012;-58
2023/06/19 12:38:54;;;;;;;;;;;25.00;50.70;;;;;;5008564;28;19926;-58
2023/06/19 12:41:21;;;;;;;;;;;25.00;50.70;;;;;;5012196;28;19933;-59
2023/06/19 12:43:48;;;;;;;;;;;25.00;50.70;;;;;;5009718;28;19955;-59
2023/06/19 12:46:15;;;;;;;;;;;25.10;50.80;;;;;;5011897;28;19922;-58
2023/06/19 12:48:41;;;;;;;;;;;25.10;50.80;;;;;;5014200;28;20375;-58
2023/06/19 12:51:10;;;;;;;;;;;25.00;50.70;;;;;;5006278;28;19934;-59
2023/06/19 12:53:37;;;;;;;;;;;25.10;50.80;;;;;;5009647;28;19926;-59
2023/06/19 12:56:03;;;;;;;;;;;25.10;50.80;;;;;;5005880;28;19941;-58
2023/06/19 12:58:30;;;;;;;;;;;25.10;50.80;;;;;;5026958;28;19964;-58
2023/06/19 13:00:57;;;;;;;;;;;25.10;50.80;;;;;;5007722;28;19957;-59
2023/06/19 13:03:24;;;;;;;;;;;25.10;50.90;;;;;;5008423;28;20196;-58
2023/06/19 13:05:50;;;;;;;;;;;25.10;50.90;;;;;;5021581;28;19956;-60
2023/06/19 13:08:18;;;;;;;;;;;25.10;50.80;;;;;;5010750;28;19929;-58
2023/06/19 13:10:45;;;;;;;;;;;25.10;50.90;;;;;;5008164;28;19926;-58
2023/06/19 13:13:12;;;;;;;;;;;25.10;51.00;;;;;;5011502;28;19969;-59
2023/06/19 13:15:39;;;;;;;;;;;25.10;50.90;;;;;;5005749;28;20106;-59
2023/06/19 13:18:06;;;;;;;;;;;25.10;51.00;;;;;;5015884;28;19928;-58
2023/06/19 13:20:32;;;;;;;;;;;25.10;51.60;;;;;;5013148;28;19957;-58
2023/06/19 13:22:59;;;;;;;;;;;25.10;51.00;;;;;;5010431;28;19972;-58
2023/06/19 13:25:27;;;;;;;;;;;25.10;51.00;;;;;;5008162;28;19932;-59
2023/06/19 13:27:54;;;;;;;;;;;25.10;51.00;;;;;;5013098;28;20126;-57
2023/06/19 13:30:21;;;;;;;;;;;25.20;51.00;;;;;;5023424;28;19921;-58
2023/06/19 13:32:47;;;;;;;;;;;25.10;51.00;;;;;;5005943;28;19933;-58
2023/06/19 13:35:14;;;;;;;;;;;25.10;51.00;;;;;;5012474;28;19922;-58
2023/06/19 13:37:41;;;;;;;;;;;25.20;51.00;;;;;;5013948;28;20390;-58
2023/06/19 13:40:08;;;;;;;;;;;25.10;51.00;;;;;;5009272;28;19929;-59
2023/06/19 13:42:36;;;;;;;;;;;25.20;51.10;;;;;;5028760;28;19921;-59
2023/06/19 13:45:03;;;;;;;;;;;25.20;51.20;;;;;;5011117;28;19933;-59
2023/06/19 13:47:30;;;;;;;;;;;25.20;51.30;;;;;;5020548;28;19926;-58
2023/06/19 13:49:57;;;;;;;;;;;25.20;51.20;;;;;;5014895;28;19921;-58
2023/06/19 13:52:23;;;;;;;;;;;25.20;51.40;;;;;;5011166;28;20268;-58
2023/06/19 13:54:50;;;;;;;;;;;25.20;51.30;;;;;;5008679;28;19988;-58
2023/06/19 13:57:17;;;;;;;;;;;25.20;51.30;;;;;;5021749;28;19928;-59
2023/06/19 13:59:47;;;;;;;;;;;25.20;51.30;;;;;;5004676;28;19926;-58
2023/06/19 14:02:14;;;;;;;;;;;25.30;51.40;;;;;;5011234;28;19961;-58
2023/06/19 14:04:41;;;;;;;;;;;25.30;51.40;;;;;;5015491;28;20015;-58
2023/06/19 14:07:08;;;;;;;;;;;25.30;51.40;;;;;;5020273;28;19928;-59
2023/06/19 14:09:34;;;;;;;;;;;25.30;51.40;;;;;;5020757;28;19931;-58
2023/06/19 14:12:01;;;;;;;;;;;25.30;51.30;;;;;;5016922;28;19998;-59
2023/06/19 14:14:28;;;;;;;;;;;25.30;51.90;;;;;;5011961;28;19926;-59
2023/06/19 14:16:57;;;;;;;;;;;25.30;51.40;;;;;;5011877;28;19987;-59